Time;durP1;ratioP1;P1;durP2;ratioP2;P2;SDS_P1;SDS_P2;PMS_P1;PMS_P2;Temp;Humidity;BMP_temperature;BMP_pressure;BME280_temperature;BME280_humidity;BME280_pressure;Samples;Min_cycle;Max_cycle;Signal;HPM_P1;HPM_P2
2023/03/28 00:01:27;;;;;;;4.40;3.40;;;8.30;92.70;;;;;;5050420;28;20048;-72
2023/03/28 00:03:56;;;;;;;7.03;3.78;;;8.10;91.60;;;;;;5050706;28;20033;-73
2023/03/28 00:06:26;;;;;;;3.67;3.25;;;8.20;91.90;;;;;;5055675;23;20049;-72
2023/03/28 00:08:54;;;;;;;4.32;3.40;;;8.10;91.30;;;;;;5041695;28;20060;-71
2023/03/28 00:11:22;;;;;;;4.07;3.40;;;8.10;90.40;;;;;;5059088;28;20091;-72
2023/03/28 00:13:59;;;;;;;4.45;3.50;;;8.10;90.40;;;;;;5032525;28;20060;-72
2023/03/28 00:16:32;;;;;;;4.20;3.60;;;8.10;90.70;;;;;;5047683;28;20407;-72
2023/03/28 00:19:04;;;;;;;4.00;3.65;;;8.00;90.90;;;;;;5032672;28;20397;-72
2023/03/28 00:21:40;;;;;;;8.48;3.70;;;7.90;90.80;;;;;;5032788;28;20037;-72
2023/03/28 00:24:13;;;;;;;3.78;3.38;;;7.90;91.00;;;;;;5050350;28;20063;-72
2023/03/28 00:26:42;;;;;;;4.10;3.70;;;7.90;91.00;;;;;;5050568;28;20044;-71
2023/03/28 00:29:14;;;;;;;5.63;3.70;;;7.80;90.60;;;;;;5033589;28;20453;-71
2023/03/28 00:31:41;;;;;;;5.18;3.70;;;7.90;90.60;;;;;;5051389;28;20045;-72
2023/03/28 00:34:09;;;;;;;4.28;3.80;;;7.90;89.20;;;;;;5050222;28;20061;-70
2023/03/28 00:36:38;;;;;;;4.13;3.72;;;7.70;89.30;;;;;;5052443;28;20372;-72
2023/03/28 00:39:06;;;;;;;3.80;3.40;;;7.90;89.90;;;;;;5056979;28;20036;-72
2023/03/28 00:41:38;;;;;;;5.22;3.65;;;7.80;87.90;;;;;;5060489;28;20460;-69
2023/03/28 00:44:51;;;;;;;4.13;3.72;;;7.70;86.40;;;;;;5050129;28;20522;-72
2023/03/28 00:47:37;;;;;;;4.10;3.70;;;7.70;86.10;;;;;;5034115;28;20491;-72
2023/03/28 00:50:29;;;;;;;5.10;3.83;;;7.60;86.30;;;;;;5056737;28;20041;-72
2023/03/28 00:53:00;;;;;;;4.07;3.67;;;7.70;85.90;;;;;;5032756;28;20112;-72
2023/03/28 00:55:41;;;;;;;4.10;3.70;;;7.70;85.80;;;;;;5050102;28;20385;-73
2023/03/28 00:58:09;;;;;;;;;;;7.60;84.70;;;;;;5025962;28;20491;-73
2023/03/28 01:00:41;;;;;;;5.22;3.97;;;7.60;85.90;;;;;;5053803;28;20127;-72
2023/03/28 01:03:12;;;;;;;4.30;3.90;;;7.60;86.00;;;;;;5032802;28;20045;-73
2023/03/28 01:05:42;;;;;;;3.80;3.50;;;7.40;86.20;;;;;;5044940;28;20072;-73
2023/03/28 01:08:27;;;;;;;6.95;4.28;;;6.90;86.80;;;;;;5050300;28;20045;-73
2023/03/28 01:10:55;;;;;;;5.18;4.20;;;7.20;89.10;;;;;;5050319;28;20048;-74
2023/03/28 01:13:30;;;;;;;7.60;4.28;;;7.30;86.90;;;;;;5052272;28;20041;-70
2023/03/28 01:15:59;;;;;;;5.18;4.25;;;7.30;86.40;;;;;;5036130;28;20389;-73
2023/03/28 01:18:29;;;;;;;4.57;4.15;;;7.20;86.10;;;;;;5035958;28;20049;-72
2023/03/28 01:21:05;;;;;;;4.80;4.30;;;7.30;84.10;;;;;;5044556;28;20171;-73
2023/03/28 01:23:56;;;;;;;5.70;4.13;;;7.30;83.90;;;;;;5053390;28;20400;-74
2023/03/28 01:26:50;;;;;;;6.05;4.20;;;7.30;83.40;;;;;;5053487;28;20503;-73
2023/03/28 01:29:40;;;;;;;4.35;3.95;;;7.40;83.20;;;;;;5020317;28;20049;-72
2023/03/28 01:32:35;;;;;;;4.93;4.00;;;7.40;83.10;;;;;;5027886;28;20044;-72
2023/03/28 01:35:05;;;;;;;4.93;4.15;;;7.50;82.50;;;;;;5053474;28;20467;-72
2023/03/28 01:37:53;;;;;;;4.55;4.03;;;7.50;81.70;;;;;;5070278;28;20047;-73
2023/03/28 01:40:49;;;;;;;5.70;4.30;;;7.40;81.40;;;;;;5055557;28;20167;-71
2023/03/28 01:43:49;;;;;;;4.32;3.92;;;7.30;81.80;;;;;;5053317;28;20044;-71
2023/03/28 01:46:22;;;;;;;4.87;4.27;;;7.20;81.80;;;;;;5052128;28;20052;-72
2023/03/28 01:49:06;;;;;;;5.07;4.10;;;7.20;81.20;;;;;;5046647;28;20053;-72
2023/03/28 01:51:49;;;;;;;6.15;4.47;;;7.20;81.10;;;;;;5060503;28;20059;-72
2023/03/28 01:54:42;;;;;;;4.53;4.13;;;7.20;81.10;;;;;;5040070;28;20385;-72
2023/03/28 01:57:18;;;;;;;4.90;4.13;;;7.10;81.30;;;;;;5052943;28;20400;-73
2023/03/28 02:00:11;;;;;;;5.30;4.43;;;7.10;81.00;;;;;;5028418;28;20051;-72
2023/03/28 02:02:49;;;;;;;5.78;4.20;;;7.20;79.50;;;;;;5052918;28;20392;-73
2023/03/28 02:05:19;;;;;;;4.72;4.22;;;7.30;79.80;;;;;;5052891;28;20061;-72
2023/03/28 02:07:48;;;;;;;5.38;4.53;;;7.30;78.80;;;;;;5035400;28;20140;-72
2023/03/28 02:10:19;;;;;;;4.72;4.00;;;7.20;78.60;;;;;;5035146;28;20044;-71
2023/03/28 02:12:54;;;;;;;4.80;4.28;;;7.00;77.60;;;;;;5029827;28;20048;-72
2023/03/28 02:15:45;;;;;;;5.15;4.28;;;7.00;77.60;;;;;;5043703;28;20040;-71
2023/03/28 02:18:22;;;;;;;4.97;4.40;;;7.20;78.20;;;;;;5038968;28;20037;-72
2023/03/28 02:20:55;;;;;;;4.72;4.20;;;7.20;78.80;;;;;;5053269;28;20045;-72
2023/03/28 02:23:43;;;;;;;5.07;4.57;;;7.10;78.00;;;;;;5047420;28;20049;-72
2023/03/28 02:26:13;;;;;;;5.55;4.78;;;7.10;77.90;;;;;;5052582;28;20052;-72
2023/03/28 02:28:47;;;;;;;8.35;4.50;;;6.90;78.50;;;;;;5043689;28;20052;-72
2023/03/28 02:31:59;;;;;;;5.97;4.18;;;6.90;78.80;;;;;;5050458;28;20448;-73
2023/03/28 02:34:26;;;;;;;6.63;4.68;;;6.50;79.20;;;;;;5022892;28;20044;-72
2023/03/28 02:37:12;;;;;;;6.05;4.30;;;6.60;80.40;;;;;;5027350;28;20036;-72
2023/03/28 02:39:56;;;;;;;4.82;4.32;;;6.80;79.30;;;;;;5022702;28;20422;-71
2023/03/28 02:43:01;;;;;;;6.10;4.95;;;6.90;79.80;;;;;;5053686;28;20039;-71
2023/03/28 02:46:13;;;;;;;6.65;4.95;;;6.40;80.40;;;;;;5022229;28;20461;-72
2023/03/28 02:49:32;;;;;;;6.88;4.63;;;6.60;80.00;;;;;;5057243;28;20040;-71
2023/03/28 02:52:33;;;;;;;4.90;4.40;;;6.60;78.70;;;;;;4988334;28;20133;-70
2023/03/28 02:55:14;;;;;;;5.57;4.57;;;6.80;79.20;;;;;;4989891;28;20042;-69
2023/03/28 02:58:25;;;;;;;8.80;4.85;;;6.50;78.50;;;;;;5071875;28;20145;-72
2023/03/28 03:00:53;;;;;;;7.38;5.25;;;6.70;79.10;;;;;;5034767;28;20496;-72
2023/03/28 03:03:20;;;;;;;4.90;4.40;;;6.70;78.20;;;;;;5046375;28;20111;-72
2023/03/28 03:05:48;;;;;;;8.25;4.97;;;6.60;78.70;;;;;;5039814;28;20419;-71
2023/03/28 03:08:16;;;;;;;5.05;4.55;;;6.60;78.40;;;;;;5058430;28;20396;-72
2023/03/28 03:10:43;;;;;;;6.20;4.90;;;6.60;78.40;;;;;;5051643;28;20044;-71
2023/03/28 03:13:27;;;;;;;6.55;5.10;;;6.60;77.90;;;;;;5051460;28;20108;-72
2023/03/28 03:15:55;;;;;;;6.05;4.93;;;6.60;78.60;;;;;;5033947;28;20052;-73
2023/03/28 03:18:23;;;;;;;7.40;5.18;;;6.50;78.80;;;;;;5068522;28;20037;-71
2023/03/28 03:20:50;;;;;;;5.68;5.00;;;6.40;78.60;;;;;;5026567;28;20049;-73
2023/03/28 03:23:18;;;;;;;6.25;5.07;;;6.60;79.00;;;;;;5047141;28;20063;-72
2023/03/28 03:25:45;;;;;;;7.30;5.28;;;6.40;78.90;;;;;;5017345;28;20045;-71
2023/03/28 03:28:12;;;;;;;9.98;5.10;;;6.50;78.90;;;;;;5056253;28;20036;-72
2023/03/28 03:30:43;;;;;;;5.57;5.03;;;6.50;78.90;;;;;;5057231;28;20037;-72
2023/03/28 03:33:13;;;;;;;5.68;4.72;;;6.60;78.80;;;;;;5046251;28;20138;-74
2023/03/28 03:35:44;;;;;;;7.72;4.93;;;6.40;79.10;;;;;;5034180;28;20126;-72
2023/03/28 03:38:12;;;;;;;7.78;4.85;;;6.40;78.60;;;;;;5037026;28;20500;-72
2023/03/28 03:40:40;;;;;;;5.28;4.78;;;6.30;78.80;;;;;;5039326;28;20496;-73
2023/03/28 03:43:08;;;;;;;8.18;5.20;;;6.30;77.80;;;;;;5052678;28;20032;-72
2023/03/28 03:45:36;;;;;;;7.20;4.93;;;6.40;78.20;;;;;;5049402;28;20203;-73
2023/03/28 03:48:04;;;;;;;5.38;4.88;;;6.30;77.40;;;;;;5025413;28;20049;-74
2023/03/28 03:50:31;;;;;;;5.63;4.55;;;6.40;76.80;;;;;;5035770;28;20045;-73
2023/03/28 03:52:59;;;;;;;5.15;4.47;;;6.10;77.30;;;;;;5050910;28;20116;-72
2023/03/28 03:55:26;;;;;;;6.95;5.10;;;6.30;78.60;;;;;;5063014;28;20044;-72
2023/03/28 03:57:54;;;;;;;9.52;5.20;;;6.20;78.30;;;;;;5063439;28;20075;-73
2023/03/28 04:00:21;;;;;;;5.20;4.57;;;6.40;76.60;;;;;;5016570;28;20055;-71
2023/03/28 04:02:48;;;;;;;5.38;4.88;;;6.30;75.90;;;;;;5041491;28;20054;-72
2023/03/28 04:05:16;;;;;;;5.18;4.63;;;6.40;75.30;;;;;;5068359;28;20450;-72
2023/03/28 04:07:43;;;;;;;5.20;4.70;;;6.20;75.80;;;;;;5041626;28;20052;-73
2023/03/28 04:10:10;;;;;;;5.95;5.13;;;6.30;76.80;;;;;;5052577;28;20528;-73
2023/03/28 04:12:37;;;;;;;5.88;4.63;;;6.30;76.40;;;;;;5036791;28;20052;-73
2023/03/28 04:15:05;;;;;;;6.35;5.13;;;6.30;75.90;;;;;;5057085;28;20426;-73
2023/03/28 04:17:33;;;;;;;5.60;5.00;;;6.30;75.70;;;;;;5060511;28;20546;-73
2023/03/28 04:20:11;;;;;;;6.47;5.07;;;6.40;76.20;;;;;;5033343;28;20132;-73
2023/03/28 04:22:39;;;;;;;5.75;4.50;;;6.40;74.70;;;;;;5051042;28;20053;-70
2023/03/28 04:25:24;;;;;;;5.38;4.72;;;6.50;74.40;;;;;;5058530;28;20039;-70
2023/03/28 04:27:53;;;;;;;5.55;4.57;;;6.40;75.00;;;;;;5056975;28;20045;-72
2023/03/28 04:30:20;;;;;;;5.93;4.82;;;6.40;74.80;;;;;;5060195;28;20086;-72
2023/03/28 04:32:53;;;;;;;6.18;4.70;;;6.40;75.30;;;;;;5063458;28;20045;-72
2023/03/28 04:35:20;;;;;;;5.25;4.75;;;6.40;75.20;;;;;;5058283;28;20047;-71
2023/03/28 04:37:48;;;;;;;5.70;4.18;;;6.60;74.50;;;;;;5056757;28;20083;-71
2023/03/28 04:40:16;;;;;;;5.63;4.63;;;6.40;73.80;;;;;;5055896;28;20045;-71
2023/03/28 04:42:44;;;;;;;5.75;4.80;;;6.30;73.30;;;;;;5050578;28;20091;-70
2023/03/28 04:45:11;;;;;;;5.13;4.63;;;6.30;74.10;;;;;;5032848;28;20049;-71
2023/03/28 04:47:40;;;;;;;5.25;4.75;;;6.30;74.10;;;;;;5049299;28;20435;-72
2023/03/28 04:50:08;;;;;;;5.80;4.57;;;6.30;73.80;;;;;;5055759;28;20041;-69
2023/03/28 04:52:35;;;;;;;5.75;4.70;;;6.40;73.90;;;;;;5063773;28;20118;-71
2023/03/28 04:55:04;;;;;;;6.72;4.60;;;6.50;73.10;;;;;;5036906;28;20091;-70
2023/03/28 04:57:31;;;;;;;5.28;4.57;;;6.30;73.90;;;;;;5057653;28;20044;-72
2023/03/28 04:59:59;;;;;;;7.60;4.93;;;6.30;74.50;;;;;;5044203;28;20052;-73
2023/03/28 05:02:26;;;;;;;5.82;4.50;;;6.40;73.50;;;;;;5059224;28;20033;-73
2023/03/28 05:04:56;;;;;;;6.10;4.50;;;6.50;73.60;;;;;;5054017;28;20056;-72
2023/03/28 05:07:27;;;;;;;5.00;4.50;;;6.50;72.90;;;;;;5060164;28;20041;-75
2023/03/28 05:09:54;;;;;;;17.20;10.73;;;6.30;72.50;;;;;;5038231;28;20412;-72
2023/03/28 05:12:22;;;;;;;53.70;30.42;;;6.70;73.70;;;;;;5053515;28;20399;-71
2023/03/28 05:14:49;;;;;;;6.57;5.95;;;6.70;74.30;;;;;;5052629;28;20200;-70
2023/03/28 05:17:16;;;;;;;8.27;5.03;;;6.60;71.90;;;;;;5054011;28;20431;-70
2023/03/28 05:19:44;;;;;;;6.78;4.95;;;6.40;71.60;;;;;;5036232;28;20411;-70
2023/03/28 05:22:11;;;;;;;5.00;4.30;;;6.40;72.10;;;;;;5054930;28;20170;-71
2023/03/28 05:24:38;;;;;;;12.88;8.13;;;6.40;72.00;;;;;;5057048;28;20075;-72
2023/03/28 05:27:08;;;;;;;41.60;22.70;;;6.50;72.10;;;;;;5050760;28;20056;-72
2023/03/28 05:29:37;;;;;;;18.05;12.23;;;6.60;72.40;;;;;;5050145;28;20049;-72
2023/03/28 05:32:08;;;;;;;28.38;15.73;;;6.60;72.70;;;;;;5017382;28;20132;-74
2023/03/28 05:34:35;;;;;;;7.32;6.63;;;6.60;72.10;;;;;;5051381;28;20045;-72
2023/03/28 05:37:03;;;;;;;5.70;4.88;;;6.60;71.70;;;;;;5033600;28;20144;-72
2023/03/28 05:39:30;;;;;;;6.57;4.85;;;6.60;71.90;;;;;;5057268;28;20495;-70
2023/03/28 05:41:57;;;;;;;6.88;4.60;;;6.70;71.20;;;;;;5034205;28;20075;-72
2023/03/28 05:44:24;;;;;;;6.35;4.40;;;6.70;70.50;;;;;;5059997;28;20041;-72
2023/03/28 05:46:52;;;;;;;5.40;4.40;;;6.70;71.10;;;;;;5060274;28;20040;-71
2023/03/28 05:49:19;;;;;;;5.50;4.22;;;6.40;71.50;;;;;;5048751;28;20465;-71
2023/03/28 05:51:47;;;;;;;5.43;4.57;;;6.60;70.20;;;;;;5036925;28;20048;-72
2023/03/28 05:54:15;;;;;;;6.97;4.60;;;6.40;70.60;;;;;;5047046;28;20112;-71
2023/03/28 05:56:42;;;;;;;5.72;4.63;;;6.60;69.70;;;;;;5036125;28;20369;-74
2023/03/28 05:59:12;;;;;;;6.85;4.55;;;6.70;69.90;;;;;;5052198;28;20029;-73
2023/03/28 06:01:41;;;;;;;6.22;4.25;;;6.50;70.40;;;;;;5061871;28;20048;-71
2023/03/28 06:04:09;;;;;;;11.10;6.97;;;6.60;71.00;;;;;;5045644;28;20038;-73
2023/03/28 06:06:37;;;;;;;11.65;7.53;;;6.60;71.70;;;;;;5041389;28;20473;-75
2023/03/28 06:09:04;;;;;;;5.95;4.82;;;6.80;70.40;;;;;;5053075;28;20044;-72
2023/03/28 06:11:31;;;;;;;5.10;4.60;;;6.70;69.40;;;;;;5035677;28;20478;-72
2023/03/28 06:13:59;;;;;;;5.93;4.95;;;6.70;69.90;;;;;;5057143;28;20039;-73
2023/03/28 06:16:26;;;;;;;6.90;4.95;;;6.90;69.50;;;;;;5034017;28;20045;-72
2023/03/28 06:18:57;;;;;;;5.45;4.53;;;7.00;69.50;;;;;;5043206;28;20036;-72
2023/03/28 06:21:40;;;;;;;6.85;4.60;;;7.00;68.10;;;;;;5037024;28;20045;-72
2023/03/28 06:24:09;;;;;;;5.40;4.28;;;6.80;66.90;;;;;;5028040;23;20391;-72
2023/03/28 06:26:37;;;;;;;5.72;4.10;;;7.00;68.20;;;;;;5032445;28;20044;-72
2023/03/28 06:29:05;;;;;;;5.97;4.32;;;6.60;68.40;;;;;;5031528;28;20036;-74
2023/03/28 06:31:33;;;;;;;4.47;4.07;;;6.70;68.10;;;;;;5024634;28;20087;-73
2023/03/28 06:34:00;;;;;;;7.05;4.30;;;6.30;67.50;;;;;;5010655;28;20041;-73
2023/03/28 06:36:27;;;;;;;4.50;4.05;;;6.70;67.30;;;;;;5013462;28;20133;-74
2023/03/28 06:38:57;;;;;;;5.22;4.07;;;6.60;66.90;;;;;;5063235;23;20056;-73
2023/03/28 06:41:27;;;;;;;5.07;4.40;;;6.00;67.40;;;;;;5041474;28;20049;-74
2023/03/28 06:43:55;;;;;;;4.47;4.00;;;6.10;66.90;;;;;;5052344;28;20055;-74
2023/03/28 06:46:22;;;;;;;4.72;3.60;;;6.10;66.20;;;;;;5053032;28;20036;-73
2023/03/28 06:48:50;;;;;;;4.82;3.80;;;6.00;65.80;;;;;;5033190;28;20037;-73
2023/03/28 06:51:17;;;;;;;4.30;3.90;;;6.40;66.70;;;;;;5044833;28;20440;-73
2023/03/28 06:53:45;;;;;;;6.72;4.50;;;6.20;65.50;;;;;;5034212;28;20075;-73
2023/03/28 06:56:12;;;;;;;6.45;4.15;;;6.50;66.40;;;;;;5037760;28;20060;-74
2023/03/28 06:58:39;;;;;;;5.90;4.43;;;6.60;64.00;;;;;;5051574;28;20040;-74
2023/03/28 07:01:07;;;;;;;5.38;4.10;;;6.70;65.00;;;;;;5059362;28;20032;-73
2023/03/28 07:03:34;;;;;;;8.38;3.70;;;6.80;63.10;;;;;;5040776;28;20412;-74
2023/03/28 07:06:07;;;;;;;4.68;4.15;;;6.00;63.30;;;;;;5054614;28;20068;-73
2023/03/28 07:08:35;;;;;;;4.30;3.90;;;6.00;64.60;;;;;;5038093;28;20481;-73
2023/03/28 07:11:03;;;;;;;4.30;3.60;;;6.20;64.90;;;;;;5052529;28;20049;-73
2023/03/28 07:13:31;;;;;;;4.93;4.18;;;6.30;63.30;;;;;;5050721;28;20051;-73
2023/03/28 07:16:02;;;;;;;6.05;4.22;;;6.70;63.90;;;;;;5053728;28;20403;-73
2023/03/28 07:18:30;;;;;;;5.75;4.47;;;6.60;63.70;;;;;;5053527;28;20403;-74
2023/03/28 07:20:57;;;;;;;4.32;3.92;;;6.70;62.20;;;;;;5071522;28;20037;-74
2023/03/28 07:23:30;;;;;;;4.40;4.00;;;6.70;62.50;;;;;;5052871;28;20463;-73
2023/03/28 07:25:58;;;;;;;5.30;4.20;;;6.60;61.80;;;;;;5053786;28;20036;-74
2023/03/28 07:28:25;;;;;;;5.82;4.20;;;6.80;62.10;;;;;;5039921;28;20048;-73
2023/03/28 07:30:53;;;;;;;6.35;3.90;;;6.90;62.00;;;;;;5053143;28;20418;-73
2023/03/28 07:33:20;;;;;;;5.30;3.85;;;6.60;62.20;;;;;;5071099;28;20044;-74
2023/03/28 07:36:17;;;;;;;5.82;4.10;;;6.70;61.10;;;;;;5051529;28;20029;-72
2023/03/28 07:38:45;;;;;;;5.25;4.10;;;6.60;62.20;;;;;;5029889;28;20056;-75
2023/03/28 07:41:15;;;;;;;4.65;3.80;;;6.90;60.90;;;;;;5017655;28;20562;-74
2023/03/28 07:43:43;;;;;;;4.20;3.70;;;6.90;59.70;;;;;;5034265;28;20102;-74
2023/03/28 07:46:13;;;;;;;5.43;4.05;;;6.70;58.70;;;;;;5062979;28;20049;-75
2023/03/28 07:48:41;;;;;;;7.50;3.90;;;7.10;60.10;;;;;;5007766;28;20080;-72
2023/03/28 07:51:09;;;;;;;6.90;4.10;;;7.30;59.00;;;;;;5044470;28;20029;-73
2023/03/28 07:53:37;;;;;;;5.90;4.43;;;7.40;58.50;;;;;;5051326;28;20052;-72
2023/03/28 07:56:10;;;;;;;6.75;4.20;;;7.50;57.80;;;;;;5033286;28;20037;-74
2023/03/28 07:58:40;;;;;;;5.65;4.10;;;7.60;58.70;;;;;;5029580;28;20132;-73
2023/03/28 08:01:11;;;;;;;4.60;3.78;;;7.70;58.90;;;;;;5024610;28;20044;-73
2023/03/28 08:03:39;;;;;;;4.00;3.60;;;7.10;56.50;;;;;;5052752;28;20441;-74
2023/03/28 08:06:09;;;;;;;5.03;3.70;;;7.20;55.70;;;;;;5070706;28;20030;-73
2023/03/28 08:08:55;;;;;;;4.10;3.63;;;7.30;55.90;;;;;;5020253;28;20044;-73
2023/03/28 08:11:22;;;;;;;4.90;3.78;;;7.60;54.70;;;;;;5025978;28;20059;-72
2023/03/28 08:13:49;;;;;;;4.30;3.60;;;7.60;55.80;;;;;;5069750;28;20040;-75
2023/03/28 08:16:16;;;;;;;4.45;3.75;;;7.50;54.10;;;;;;5033153;28;20496;-73
2023/03/28 08:18:50;;;;;;;4.40;3.70;;;7.60;54.10;;;;;;5046472;28;20049;-73
2023/03/28 08:21:38;;;;;;;4.38;3.50;;;7.70;52.70;;;;;;5024972;28;20052;-73
2023/03/28 08:24:06;;;;;;;4.25;3.72;;;7.70;53.80;;;;;;5039069;28;20388;-74
2023/03/28 08:26:34;;;;;;;4.20;3.70;;;7.70;53.30;;;;;;5056761;28;20410;-75
2023/03/28 08:29:02;;;;;;;6.30;3.45;;;7.60;52.90;;;;;;5058852;28;20043;-73
2023/03/28 08:31:29;;;;;;;3.80;3.50;;;7.50;52.50;;;;;;5059535;28;20046;-74
2023/03/28 08:33:57;;;;;;;3.75;3.33;;;7.80;52.80;;;;;;5065430;28;20041;-74
2023/03/28 08:36:27;;;;;;;4.13;3.60;;;8.00;53.00;;;;;;5069011;28;20041;-73
2023/03/28 08:38:59;;;;;;;3.88;3.45;;;8.20;52.50;;;;;;5037801;28;20075;-73
2023/03/28 08:41:45;;;;;;;5.38;3.30;;;8.30;52.80;;;;;;5059095;28;20068;-74
2023/03/28 08:44:38;;;;;;;3.33;3.00;;;8.40;52.10;;;;;;5042747;28;20138;-73
2023/03/28 08:47:16;;;;;;;3.50;3.15;;;8.40;50.30;;;;;;5058873;28;20147;-72
2023/03/28 08:49:48;;;;;;;3.70;3.00;;;8.30;51.00;;;;;;5058813;28;20044;-73
2023/03/28 08:52:19;;;;;;;3.75;3.15;;;8.40;51.20;;;;;;5042278;28;20058;-73
2023/03/28 08:54:56;;;;;;;4.45;3.38;;;8.20;51.20;;;;;;5068839;28;20138;-74
2023/03/28 08:57:28;;;;;;;3.55;3.08;;;8.70;51.90;;;;;;5039191;28;20059;-75
2023/03/28 09:00:12;;;;;;;6.57;3.00;;;8.70;51.40;;;;;;5066091;28;20041;-72
2023/03/28 09:02:41;;;;;;;5.32;3.30;;;8.70;51.00;;;;;;5064344;28;20056;-73
2023/03/28 09:05:19;;;;;;;5.43;3.10;;;9.00;51.20;;;;;;5058869;28;20036;-73
2023/03/28 09:08:13;;;;;;;3.85;3.20;;;9.10;51.20;;;;;;5077156;28;20436;-73
2023/03/28 09:10:43;;;;;;;4.45;3.00;;;9.40;50.90;;;;;;5058361;28;20028;-73
2023/03/28 09:13:43;;;;;;;5.85;3.17;;;9.90;50.20;;;;;;5058545;28;20434;-73
2023/03/28 09:16:17;;;;;;;4.90;3.10;;;10.00;49.70;;;;;;5076950;28;20041;-73
2023/03/28 09:19:00;;;;;;;3.67;2.90;;;9.60;50.20;;;;;;5058412;28;20438;-72
2023/03/28 09:21:38;;;;;;;3.67;3.00;;;9.40;49.60;;;;;;5057895;28;20373;-73
2023/03/28 09:24:27;;;;;;;3.30;3.00;;;9.50;49.60;;;;;;5059463;28;20060;-73
2023/03/28 09:27:42;;;;;;;4.07;3.15;;;9.80;49.90;;;;;;5076653;28;20047;-72
2023/03/28 09:30:16;;;;;;;3.58;2.72;;;9.90;49.60;;;;;;5065235;28;20074;-73
2023/03/28 09:32:44;;;;;;;3.72;2.90;;;10.00;47.90;;;;;;5074142;28;20065;-73
2023/03/28 09:35:18;;;;;;;3.97;3.00;;;10.00;47.00;;;;;;5072751;28;20544;-73
2023/03/28 09:38:14;;;;;;;5.30;2.90;;;10.00;48.10;;;;;;5055735;28;20071;-74
2023/03/28 09:40:45;;;;;;;4.43;3.10;;;9.60;48.00;;;;;;5057505;28;20041;-74
2023/03/28 09:43:27;;;;;;;4.47;2.97;;;10.00;47.60;;;;;;5053809;28;20091;-74
2023/03/28 09:46:12;;;;;;;3.55;3.00;;;9.60;48.80;;;;;;5036090;28;20067;-74
2023/03/28 09:48:39;;;;;;;3.30;2.70;;;9.80;49.00;;;;;;5065050;28;20127;-72
2023/03/28 09:51:14;;;;;;;4.55;2.95;;;9.40;48.90;;;;;;5047955;28;20108;-73
2023/03/28 09:53:42;;;;;;;4.20;2.88;;;9.70;50.50;;;;;;5062847;28;20037;-74
2023/03/28 09:56:31;;;;;;;4.75;2.92;;;9.80;50.70;;;;;;5055075;28;20075;-74
2023/03/28 09:59:06;;;;;;;6.25;3.05;;;10.50;49.60;;;;;;5057422;28;20041;-73
2023/03/28 10:02:02;;;;;;;4.95;3.10;;;10.60;48.60;;;;;;5042579;28;20067;-75
2023/03/28 10:04:37;;;;;;;4.03;2.95;;;10.30;47.90;;;;;;5039858;28;20071;-74
2023/03/28 10:07:10;;;;;;;5.20;3.00;;;9.90;48.10;;;;;;5044756;28;20041;-73
2023/03/28 10:09:51;;;;;;;3.28;2.60;;;9.80;47.30;;;;;;5055237;28;20043;-73
2023/03/28 10:12:33;;;;;;;4.38;2.78;;;10.30;47.20;;;;;;5053138;22;20049;-74
2023/03/28 10:15:01;;;;;;;4.28;2.83;;;10.50;47.30;;;;;;5067891;28;20044;-73
2023/03/28 10:17:33;;;;;;;5.63;3.00;;;9.80;47.60;;;;;;5030974;28;20032;-73
2023/03/28 10:20:14;;;;;;;3.13;2.78;;;10.40;47.00;;;;;;5047273;28;20106;-74
2023/03/28 10:22:48;;;;;;;4.63;3.08;;;10.40;47.50;;;;;;5012511;28;20060;-71
2023/03/28 10:25:30;;;;;;;3.85;2.80;;;10.60;47.40;;;;;;5034921;28;20383;-76
2023/03/28 10:27:59;;;;;;;5.13;3.45;;;10.50;47.10;;;;;;5017808;28;20049;-74
2023/03/28 10:30:29;;;;;;;5.88;2.90;;;10.50;47.00;;;;;;5044427;28;20041;-72
2023/03/28 10:33:22;;;;;;;3.90;2.90;;;10.60;46.90;;;;;;5012202;28;20187;-74
2023/03/28 10:36:06;;;;;;;3.60;3.00;;;10.40;47.10;;;;;;5028342;28;20047;-72
2023/03/28 10:38:47;;;;;;;3.83;2.78;;;10.60;46.40;;;;;;5053623;23;20052;-73
2023/03/28 10:41:31;;;;;;;5.35;3.13;;;10.90;46.80;;;;;;5047597;28;20044;-73
2023/03/28 10:43:58;;;;;;;5.15;3.13;;;11.00;48.20;;;;;;5058035;28;20037;-73
2023/03/28 10:46:40;;;;;;;4.22;2.80;;;11.20;47.20;;;;;;5043914;28;20494;-73
2023/03/28 10:49:14;;;;;;;3.15;2.70;;;10.60;47.00;;;;;;5064770;28;20036;-73
2023/03/28 10:51:42;;;;;;;7.20;2.90;;;10.70;46.60;;;;;;5049998;28;20051;-72
2023/03/28 10:54:15;;;;;;;9.38;3.00;;;10.60;46.40;;;;;;5027320;28;20045;-72
2023/03/28 10:56:52;;;;;;;4.60;2.78;;;10.00;45.80;;;;;;5042482;28;20139;-74
2023/03/28 10:59:22;;;;;;;3.90;2.75;;;10.70;47.10;;;;;;5051753;28;20059;-74
2023/03/28 11:02:01;;;;;;;3.78;2.72;;;10.90;45.90;;;;;;5025884;28;20048;-73
2023/03/28 11:04:34;;;;;;;8.50;2.80;;;10.90;45.20;;;;;;5039488;28;20036;-72
2023/03/28 11:07:14;;;;;;;3.47;2.60;;;11.20;45.40;;;;;;5021752;28;20496;-74
2023/03/28 11:10:02;;;;;;;3.90;2.80;;;11.70;45.60;;;;;;5020993;28;20040;-73
2023/03/28 11:12:41;;;;;;;3.70;2.40;;;11.20;44.40;;;;;;5039297;28;20045;-72
2023/03/28 11:15:50;;;;;;;3.22;2.50;;;11.10;45.30;;;;;;5053257;28;20073;-72
2023/03/28 11:18:47;;;;;;;3.97;2.70;;;10.70;45.40;;;;;;5055704;28;20087;-72
2023/03/28 11:21:43;;;;;;;3.28;2.50;;;10.90;45.70;;;;;;5022698;28;20073;-74
2023/03/28 11:24:34;;;;;;;2.63;2.42;;;11.20;44.00;;;;;;5033726;28;20114;-73
2023/03/28 11:27:48;;;;;;;5.63;2.85;;;10.90;43.80;;;;;;5032411;28;20486;-73
2023/03/28 11:30:43;;;;;;;4.10;2.88;;;11.80;43.20;;;;;;4991545;28;20060;-73
2023/03/28 11:33:37;;;;;;;3.15;2.53;;;11.70;43.80;;;;;;5024446;28;20369;-74
2023/03/28 11:36:32;;;;;;;10.13;3.55;;;10.70;43.60;;;;;;5011153;28;20084;-73
2023/03/28 11:39:41;;;;;;;3.22;2.70;;;11.00;44.20;;;;;;4989398;28;20130;-75
2023/03/28 11:42:36;;;;;;;12.23;2.75;;;11.40;43.60;;;;;;4968540;28;20038;-73
2023/03/28 11:45:26;;;;;;;3.67;2.60;;;10.90;45.40;;;;;;4981882;28;20162;-73
2023/03/28 11:48:38;;;;;;;3.38;2.80;;;11.10;44.90;;;;;;4986705;28;20074;-73
2023/03/28 11:51:27;;;;;;;5.85;2.75;;;11.70;44.30;;;;;;4982553;28;20422;-71
2023/03/28 11:54:20;;;;;;;2.83;2.40;;;11.50;43.10;;;;;;4986962;28;20050;-75
2023/03/28 11:57:12;;;;;;;4.70;2.70;;;11.30;43.20;;;;;;4989374;28;20117;-74
2023/03/28 12:00:11;;;;;;;4.63;2.80;;;11.70;43.80;;;;;;4982705;28;20126;-74
2023/03/28 12:03:53;;;;;;;3.97;2.70;;;11.60;43.80;;;;;;4975394;28;20114;-74
2023/03/28 12:07:15;;;;;;;10.20;3.08;;;11.20;44.90;;;;;;4971927;28;20043;-71
2023/03/28 12:09:48;;;;;;;4.72;2.45;;;11.10;44.70;;;;;;4983721;28;20090;-73
2023/03/28 12:12:23;;;;;;;2.67;2.40;;;11.30;44.00;;;;;;4990634;28;20468;-74
2023/03/28 12:14:55;;;;;;;4.07;2.70;;;11.00;44.10;;;;;;4981624;28;20042;-74
2023/03/28 12:17:42;;;;;;;3.53;2.63;;;11.00;44.90;;;;;;4974661;28;20077;-73
2023/03/28 12:20:17;;;;;;;3.92;2.60;;;11.80;44.20;;;;;;4979766;28;20051;-73
2023/03/28 12:22:52;;;;;;;3.42;2.33;;;13.50;42.20;;;;;;4986195;28;20062;-74
2023/03/28 12:25:28;;;;;;;4.05;2.38;;;14.80;42.00;;;;;;4987214;28;20043;-72
2023/03/28 12:28:13;;;;;;;3.45;1.90;;;16.80;39.20;;;;;;4985842;28;20046;-73
2023/03/28 12:31:03;;;;;;;2.80;1.73;;;16.00;39.30;;;;;;4976519;28;20398;-73
2023/03/28 12:34:14;;;;;;;3.45;1.77;;;16.50;38.30;;;;;;4972217;28;20058;-73
2023/03/28 12:37:10;;;;;;;10.40;2.00;;;16.40;37.80;;;;;;4988092;22;20046;-76
2023/03/28 12:39:45;;;;;;;2.58;1.67;;;13.10;41.50;;;;;;5023390;23;20033;-73
2023/03/28 12:42:18;;;;;;;11.27;2.30;;;11.70;41.20;;;;;;5027191;28;20064;-73
2023/03/28 12:45:05;;;;;;;3.88;1.75;;;11.20;42.80;;;;;;5031286;28;20049;-73
2023/03/28 12:47:42;;;;;;;2.53;1.50;;;14.30;39.50;;;;;;5045853;28;20045;-75
2023/03/28 12:50:22;;;;;;;6.40;1.67;;;16.60;36.60;;;;;;5032063;28;20048;-72
2023/03/28 12:52:55;;;;;;;6.22;1.77;;;13.80;37.80;;;;;;5042135;28;20045;-72
2023/03/28 12:55:30;;;;;;;4.40;1.70;;;14.80;37.90;;;;;;5022871;28;20068;-74
2023/03/28 12:58:24;;;;;;;4.70;1.45;;;15.00;38.20;;;;;;5015629;23;20046;-74
2023/03/28 13:01:00;;;;;;;5.55;1.30;;;15.90;37.30;;;;;;4997178;28;20033;-73
2023/03/28 13:03:56;;;;;;;1.92;1.10;;;16.20;37.10;;;;;;5009970;28;20042;-71
2023/03/28 13:06:44;;;;;;;2.15;1.10;;;15.50;36.70;;;;;;5007004;28;20045;-75
2023/03/28 13:09:55;;;;;;;3.35;1.33;;;14.90;37.00;;;;;;4994686;28;20053;-73
2023/03/28 13:12:38;;;;;;;2.22;1.20;;;14.50;37.70;;;;;;4996599;28;20069;-72
2023/03/28 13:15:12;;;;;;;1.73;1.25;;;14.50;38.50;;;;;;5002607;28;20049;-73
2023/03/28 13:18:20;;;;;;;9.95;1.40;;;15.40;38.90;;;;;;4991996;28;20096;-73
2023/03/28 13:20:51;;;;;;;2.05;1.05;;;16.00;36.30;;;;;;5004138;28;20052;-74
2023/03/28 13:23:48;;;;;;;2.15;1.00;;;16.90;36.50;;;;;;5018252;28;20034;-74
2023/03/28 13:27:00;;;;;;;5.13;1.10;;;17.20;36.60;;;;;;5014138;28;20081;-72
2023/03/28 13:29:45;;;;;;;9.52;1.27;;;17.80;36.10;;;;;;5018683;28;20041;-72
2023/03/28 13:32:15;;;;;;;2.78;1.30;;;17.10;34.60;;;;;;5011240;28;20050;-73
2023/03/28 13:34:53;;;;;;;13.30;2.20;;;14.40;38.00;;;;;;5017505;28;20041;-72
2023/03/28 13:37:21;;;;;;;2.97;1.33;;;12.90;39.50;;;;;;5014867;28;20477;-72
2023/03/28 13:40:12;;;;;;;3.25;1.50;;;15.30;38.40;;;;;;5011868;28;20485;-73
2023/03/28 13:42:59;;;;;;;8.07;1.55;;;13.60;41.60;;;;;;5015079;28;20042;-75